createdAt,value
2022-08-23T00:02:22.912Z,75.12
2022-08-23T00:07:26.547Z,75.30
2022-08-23T00:12:33.294Z,74.54
2022-08-23T00:17:36.955Z,74.86
2022-08-23T00:22:39.979Z,75.17
2022-08-23T00:27:44.272Z,75.52
2022-08-23T00:32:46.027Z,75.05
2022-08-23T00:37:51.595Z,75.54
2022-08-23T00:43:14.086Z,76.45
2022-08-23T00:48:17.009Z,77.17
2022-08-23T00:53:23.722Z,77.34
2022-08-23T00:58:27.552Z,77.53
2022-08-23T01:03:38.555Z,78.15
2022-08-23T01:08:46.210Z,78.08
2022-08-23T01:13:58.541Z,78.88
2022-08-23T01:19:03.011Z,79.22
2022-08-23T01:24:07.598Z,79.21
2022-08-23T01:29:09.722Z,79.15
2022-08-23T01:34:13.612Z,79.00
2022-08-23T01:39:17.047Z,78.66
2022-08-23T01:44:19.160Z,79.65
2022-08-23T01:49:21.253Z,79.15
2022-08-23T01:54:24.466Z,79.70
2022-08-23T01:59:26.694Z,80.29
2022-08-23T02:04:29.093Z,78.97
2022-08-23T02:09:32.787Z,78.57
2022-08-23T02:14:35.948Z,79.22
2022-08-23T02:19:39.275Z,79.67
2022-08-23T02:24:44.475Z,79.80
2022-08-23T02:29:47.778Z,79.11
2022-08-23T02:35:05.341Z,78.26
2022-08-23T02:40:10.977Z,77.53
2022-08-23T02:45:12.802Z,77.49
2022-08-23T02:50:14.988Z,78.48
2022-08-23T02:55:20.097Z,79.40
2022-08-23T03:00:22.818Z,79.91
2022-08-23T03:05:24.937Z,80.62
2022-08-23T03:10:28.414Z,80.58
2022-08-23T03:15:30.825Z,79.85
2022-08-23T03:20:33.146Z,77.22
2022-08-23T03:25:37.927Z,77.39
2022-08-23T03:30:40.061Z,78.17
2022-08-23T03:35:42.354Z,79.24
2022-08-23T03:40:46.312Z,79.63
2022-08-23T03:45:48.406Z,79.83
2022-08-23T03:50:50.296Z,79.99
2022-08-23T03:55:58.308Z,79.02
2022-08-23T04:01:00.239Z,78.27
2022-08-23T04:06:01.978Z,78.19
2022-08-23T04:11:06.656Z,77.88
2022-08-23T04:16:08.650Z,77.84
2022-08-23T04:21:15.833Z,78.31
2022-08-23T04:26:19.027Z,78.94
2022-08-23T04:31:23.153Z,79.05
2022-08-23T04:36:25.720Z,79.14
2022-08-23T04:41:29.126Z,79.89
2022-08-23T04:46:31.630Z,79.58
2022-08-23T04:51:33.324Z,79.95
2022-08-23T04:56:37.228Z,79.50
2022-08-23T05:01:39.268Z,79.55
2022-08-23T05:06:41.291Z,79.73
2022-08-23T05:11:44.342Z,79.52
2022-08-23T05:16:46.317Z,79.43
2022-08-23T05:21:48.425Z,78.71
2022-08-23T05:26:51.905Z,78.60
2022-08-23T05:31:54.029Z,77.46
2022-08-23T05:36:56.427Z,77.51
2022-08-23T05:42:02.082Z,76.65
2022-08-23T05:47:06.869Z,75.31
2022-08-23T05:52:14.952Z,73.38
2022-08-23T05:57:18.310Z,73.76
2022-08-23T06:02:20.211Z,72.64
2022-08-23T06:07:22.274Z,73.39
2022-08-23T06:12:25.387Z,71.55
2022-08-23T06:17:27.584Z,73.07
2022-08-23T06:22:29.942Z,73.33
2022-08-23T06:27:33.460Z,71.94
2022-08-23T06:32:35.564Z,71.59
2022-08-23T06:37:37.356Z,72.15
2022-08-23T06:42:40.795Z,70.63
2022-08-23T06:47:42.515Z,70.16
2022-08-23T06:52:47.606Z,68.80
2022-08-23T06:57:50.737Z,70.03
2022-08-23T07:02:52.945Z,69.32
2022-08-23T07:07:54.843Z,68.83
2022-08-23T07:12:57.905Z,69.08
2022-08-23T07:18:00.115Z,67.95
2022-08-23T07:23:02.229Z,67.32
2022-08-23T07:28:09.834Z,66.45
2022-08-23T07:33:13.665Z,65.91
2022-08-23T07:38:16.304Z,63.67
2022-08-23T07:43:19.339Z,66.22
2022-08-23T07:48:37.304Z,66.24
2022-08-23T07:53:46.038Z,63.94
2022-08-23T07:58:49.613Z,63.29
2022-08-23T08:03:53.287Z,60.94
2022-08-23T08:08:55.568Z,61.36
2022-08-23T08:13:58.649Z,59.02
2022-08-23T08:19:02.157Z,58.29
2022-08-23T08:24:04.160Z,57.17
2022-08-23T08:29:08.736Z,57.64
2022-08-23T08:34:11.505Z,58.98
2022-08-23T08:39:15.116Z,57.42
2022-08-23T08:44:27.516Z,55.44
2022-08-23T08:49:37.159Z,55.90
2022-08-23T08:54:46.167Z,56.08
2022-08-23T08:59:58.340Z,56.11
2022-08-23T09:05:02.330Z,53.95
2022-08-23T09:10:29.756Z,51.58
2022-08-23T09:15:41.622Z,53.93
2022-08-23T09:20:47.047Z,51.23
2022-08-23T09:25:52.645Z,50.18
2022-08-23T09:30:58.702Z,48.61
2022-08-23T09:36:13.394Z,50.45
2022-08-23T09:41:22.646Z,51.64
2022-08-23T09:46:27.991Z,49.23
2022-08-23T09:51:32.548Z,51.33
2022-08-23T09:56:40.537Z,49.36
2022-08-23T10:01:47.927Z,48.94
2022-08-23T10:06:51.660Z,49.82
2022-08-23T10:11:55.613Z,51.14
2022-08-23T10:17:09.039Z,50.98
2022-08-23T10:22:18.671Z,51.30
2022-08-23T10:27:28.000Z,49.25
2022-08-23T10:32:43.855Z,51.23
2022-08-23T10:37:59.269Z,51.84
2022-08-23T10:43:14.013Z,50.79
2022-08-23T10:48:23.597Z,49.89
2022-08-23T10:53:34.873Z,49.56
2022-08-23T10:58:43.535Z,47.02
2022-08-23T11:04:00.685Z,42.63
2022-08-23T11:09:06.563Z,41.81
2022-08-23T11:14:11.067Z,41.46
2022-08-23T11:19:34.910Z,40.01
2022-08-23T11:24:53.103Z,40.64
2022-08-23T11:29:54.853Z,42.38
2022-08-23T11:35:08.765Z,41.86
2022-08-23T11:40:16.057Z,41.12
2022-08-23T11:45:39.184Z,38.49
2022-08-23T11:50:59.609Z,38.20
2022-08-23T11:56:46.014Z,38.17
2022-08-23T12:01:48.360Z,40.21
2022-08-23T12:06:53.514Z,42.32
2022-08-23T12:12:24.844Z,42.61
2022-08-23T12:18:04.146Z,43.24
2022-08-23T12:23:15.282Z,43.27
2022-08-23T12:28:34.406Z,42.51
2022-08-23T12:33:45.876Z,41.79
2022-08-23T12:38:58.461Z,40.41
2022-08-23T12:44:07.761Z,41.32
2022-08-23T12:49:12.589Z,43.06
2022-08-23T12:54:22.358Z,42.13
2022-08-23T12:59:33.504Z,40.38
2022-08-23T13:04:38.844Z,42.49
2022-08-23T13:09:43.368Z,43.22
2022-08-23T13:14:55.828Z,44.22
2022-08-23T13:20:16.350Z,41.09
2022-08-23T13:25:29.579Z,40.55
2022-08-23T13:30:36.324Z,41.62
2022-08-23T13:35:40.473Z,41.84
2022-08-23T13:40:51.876Z,40.78
2022-08-23T13:45:56.983Z,40.93
2022-08-23T13:51:16.901Z,43.12
2022-08-23T13:56:20.610Z,42.72
2022-08-23T14:01:22.988Z,42.57
2022-08-23T14:06:24.884Z,41.95
2022-08-23T14:11:28.131Z,41.66
2022-08-23T14:16:33.606Z,41.73
2022-08-23T14:21:35.997Z,40.52
2022-08-23T14:26:39.098Z,40.47
2022-08-23T14:31:55.639Z,41.17
2022-08-23T14:42:24.343Z,39.04
2022-08-23T14:47:26.763Z,41.29
2022-08-23T14:52:29.096Z,41.98
2022-08-23T14:57:32.318Z,43.39
2022-08-23T15:02:34.615Z,42.00
2022-08-23T15:07:36.386Z,40.92
2022-08-23T15:18:03.222Z,40.91
2022-08-23T15:23:06.541Z,39.62
2022-08-23T15:28:13.492Z,40.20
2022-08-23T15:33:16.018Z,42.31
2022-08-23T15:38:19.138Z,42.82
2022-08-23T15:43:34.012Z,42.41
2022-08-23T15:48:43.147Z,42.16
2022-08-23T15:53:45.638Z,40.70
2022-08-23T15:58:48.989Z,40.38
2022-08-23T16:03:51.077Z,42.21
2022-08-23T16:08:53.583Z,43.16
2022-08-23T16:13:57.093Z,44.59
2022-08-23T16:18:59.902Z,44.25
2022-08-23T16:24:02.183Z,43.98
2022-08-23T16:29:08.413Z,44.01
2022-08-23T16:34:13.438Z,43.93
2022-08-23T16:39:17.080Z,43.99
2022-08-23T16:44:20.512Z,45.31
2022-08-23T16:49:22.593Z,46.28
2022-08-23T16:54:24.325Z,45.42
2022-08-23T16:59:27.657Z,45.30
2022-08-23T17:04:30.886Z,46.70
2022-08-23T17:09:32.595Z,47.45
2022-08-23T17:14:36.184Z,47.74
2022-08-23T17:19:38.400Z,49.00
2022-08-23T17:24:40.391Z,49.40
2022-08-23T17:29:43.823Z,49.76
2022-08-23T17:34:45.862Z,50.38
2022-08-23T17:39:49.586Z,51.14
2022-08-23T17:44:53.363Z,52.20
2022-08-23T17:49:55.126Z,52.68
2022-08-23T17:54:57.615Z,53.55
2022-08-23T18:00:01.608Z,54.01
2022-08-23T18:05:04.107Z,54.97
2022-08-23T18:10:07.431Z,55.81
2022-08-23T18:15:12.450Z,56.59
2022-08-23T18:20:14.352Z,57.60
2022-08-23T18:25:16.639Z,59.33
2022-08-23T18:30:21.304Z,61.13
2022-08-23T18:35:23.875Z,60.95
2022-08-23T18:40:27.819Z,62.34
2022-08-23T18:45:31.023Z,61.28
2022-08-23T18:50:32.810Z,62.86
2022-08-23T18:55:34.962Z,64.66
2022-08-23T19:00:38.970Z,65.20
2022-08-23T19:05:42.607Z,66.88
2022-08-23T19:10:44.541Z,67.07
2022-08-23T19:15:47.710Z,68.26
2022-08-23T19:20:49.580Z,68.45
2022-08-23T19:25:51.335Z,69.92
2022-08-23T19:30:56.013Z,70.03
2022-08-23T19:35:58.672Z,71.38
2022-08-23T19:41:02.639Z,71.82
2022-08-23T19:46:07.051Z,71.79
2022-08-23T19:51:09.339Z,72.87
2022-08-23T19:56:11.461Z,73.18
2022-08-23T20:01:15.106Z,73.81
2022-08-23T20:06:18.916Z,74.07
2022-08-23T20:11:21.552Z,74.91
2022-08-23T20:16:25.277Z,75.18
2022-08-23T20:21:28.379Z,75.41
2022-08-23T20:26:33.197Z,76.35
2022-08-23T20:31:40.913Z,76.91
2022-08-23T20:36:43.413Z,77.45
2022-08-23T20:41:46.079Z,77.52
2022-08-23T20:46:54.686Z,77.66
2022-08-23T20:51:58.622Z,78.55
2022-08-23T20:57:01.124Z,78.62
2022-08-23T21:02:04.896Z,78.89
2022-08-23T21:07:07.029Z,79.07
2022-08-23T21:12:09.895Z,79.33
2022-08-23T21:17:13.325Z,79.10
2022-08-23T21:22:15.359Z,79.48
2022-08-23T21:27:17.407Z,79.70
2022-08-23T21:32:20.863Z,80.69
2022-08-23T21:37:23.128Z,80.86
2022-08-23T21:42:25.014Z,80.90
2022-08-23T21:47:28.460Z,81.59
2022-08-23T21:52:30.581Z,82.02
2022-08-23T21:57:32.928Z,82.00
2022-08-23T22:02:36.513Z,82.68
2022-08-23T22:07:39.237Z,82.63
2022-08-23T22:12:41.960Z,82.88
2022-08-23T22:17:45.544Z,83.07
2022-08-23T22:22:47.567Z,83.30
2022-08-23T22:27:49.339Z,83.39
2022-08-23T22:32:52.483Z,83.79
2022-08-23T22:38:12.823Z,84.08
2022-08-23T22:43:16.494Z,84.68
2022-08-23T22:48:20.066Z,85.01
2022-08-23T22:53:22.165Z,85.26
2022-08-23T22:58:24.352Z,84.82
2022-08-23T23:03:28.164Z,85.54
2022-08-23T23:08:30.137Z,85.83
2022-08-23T23:13:33.208Z,86.17
2022-08-23T23:18:36.861Z,86.37
2022-08-23T23:23:38.966Z,86.32
2022-08-23T23:28:41.009Z,86.45
2022-08-23T23:33:44.795Z,86.68
2022-08-23T23:38:47.376Z,86.56
2022-08-23T23:43:49.591Z,86.50
2022-08-23T23:48:53.445Z,87.00
2022-08-23T23:53:57.377Z,86.92
2022-08-23T23:59:01.159Z,87.16
